createdAt,value
2022-12-25T00:00:00.199Z,96.95
2022-12-25T00:02:27.247Z,119.80
2022-12-25T00:04:54.139Z,24.08
2022-12-25T00:07:20.948Z,57.70
2022-12-25T00:09:47.734Z,65.75
2022-12-25T00:12:14.593Z,60.53
2022-12-25T00:14:41.446Z,126.18
2022-12-25T00:17:08.299Z,132.90
2022-12-25T00:19:35.088Z,82.05
2022-12-25T00:22:02.088Z,85.28
2022-12-25T00:24:28.925Z,50.72
2022-12-25T00:26:55.734Z,38.55
2022-12-25T00:29:22.558Z,42.42
2022-12-25T00:31:49.439Z,22.77
2022-12-25T00:34:16.320Z,25.00
2022-12-25T00:36:43.131Z,30.40
2022-12-25T00:39:10.015Z,111.93
2022-12-25T00:41:55.335Z,73.40
2022-12-25T00:44:22.185Z,94.00
2022-12-25T00:46:49.122Z,88.32
2022-12-25T00:49:15.930Z,155.70
2022-12-25T00:51:42.822Z,77.97
2022-12-25T00:54:09.947Z,22.65
2022-12-25T00:56:36.715Z,96.68
2022-12-25T00:59:03.750Z,102.93
2022-12-25T01:01:30.865Z,13.48
2022-12-25T01:03:58.033Z,20.60
2022-12-25T01:06:25.125Z,11.63
2022-12-25T01:09:11.549Z,9.98
2022-12-25T01:11:38.555Z,59.72
2022-12-25T01:14:05.654Z,14.95
2022-12-25T01:16:32.561Z,16.85
2022-12-25T01:18:59.501Z,14.90
2022-12-25T01:21:26.676Z,13.30
2022-12-25T01:23:54.310Z,13.82
2022-12-25T01:26:23.793Z,12.55
2022-12-25T01:28:50.944Z,11.07
2022-12-25T01:31:19.718Z,14.25
2022-12-25T01:33:47.271Z,14.10
2022-12-25T01:36:18.437Z,14.70
2022-12-25T01:38:45.742Z,20.38
2022-12-25T01:41:13.919Z,14.95
2022-12-25T01:44:07.626Z,16.35
2022-12-25T01:46:35.318Z,18.40
2022-12-25T01:49:33.157Z,15.32
2022-12-25T01:52:02.808Z,12.77
2022-12-25T01:54:36.339Z,16.83
2022-12-25T01:57:08.623Z,12.20
2022-12-25T01:59:35.979Z,15.32
2022-12-25T02:02:04.075Z,14.55
2022-12-25T02:04:41.502Z,19.00
2022-12-25T02:07:18.082Z,21.13
2022-12-25T02:09:46.194Z,16.52
2022-12-25T02:12:22.661Z,14.40
2022-12-25T02:14:51.927Z,17.95
2022-12-25T02:17:45.693Z,14.93
2022-12-25T02:20:24.403Z,13.18
2022-12-25T02:23:28.789Z,15.15
2022-12-25T02:26:13.752Z,17.85
2022-12-25T02:29:25.781Z,14.80
2022-12-25T02:32:27.624Z,14.20
2022-12-25T02:35:09.461Z,16.05
2022-12-25T02:37:48.100Z,13.90
2022-12-25T02:40:27.375Z,14.73
2022-12-25T02:43:22.637Z,20.90
2022-12-25T02:46:18.630Z,15.57
2022-12-25T02:49:12.250Z,17.30
2022-12-25T02:52:02.124Z,18.20
2022-12-25T02:54:55.308Z,21.45
2022-12-25T02:57:45.086Z,17.50
2022-12-25T03:00:31.677Z,15.60
2022-12-25T03:03:19.553Z,24.77
2022-12-25T03:06:06.223Z,18.20
2022-12-25T03:08:41.406Z,25.77
2022-12-25T03:11:30.259Z,26.70
2022-12-25T03:14:23.544Z,19.70
2022-12-25T03:16:54.227Z,23.30
2022-12-25T03:19:43.081Z,21.38
2022-12-25T03:22:34.213Z,24.52
2022-12-25T03:25:20.060Z,25.67
2022-12-25T03:27:49.613Z,23.67
2022-12-25T03:30:35.146Z,29.83
2022-12-25T03:33:37.150Z,24.65
2022-12-25T03:36:18.711Z,23.63
2022-12-25T03:39:23.433Z,33.08
2022-12-25T03:42:17.956Z,16.77
2022-12-25T03:45:23.772Z,24.10
2022-12-25T03:48:12.389Z,27.67
2022-12-25T03:51:26.810Z,24.38
2022-12-25T03:54:16.316Z,25.35
2022-12-25T03:57:02.751Z,29.02
2022-12-25T03:59:48.434Z,24.90
2022-12-25T04:02:33.862Z,28.08
2022-12-25T04:05:19.377Z,20.85
2022-12-25T04:08:04.861Z,18.58
2022-12-25T04:10:50.063Z,30.73
2022-12-25T04:13:35.553Z,25.20
2022-12-25T04:16:20.815Z,22.95
2022-12-25T04:19:06.433Z,24.67
2022-12-25T04:21:51.737Z,22.50
2022-12-25T04:24:37.083Z,21.13
2022-12-25T04:27:22.673Z,23.08
2022-12-25T04:30:08.332Z,23.38
2022-12-25T04:32:53.653Z,19.77
2022-12-25T04:35:39.025Z,23.52
2022-12-25T04:38:05.862Z,22.80
2022-12-25T04:40:32.899Z,20.90
2022-12-25T04:42:59.667Z,28.20
2022-12-25T04:45:26.511Z,23.55
2022-12-25T04:47:53.309Z,22.63
2022-12-25T04:50:20.179Z,23.55
2022-12-25T04:52:48.513Z,24.08
2022-12-25T04:55:15.291Z,25.63
2022-12-25T04:57:42.116Z,24.13
2022-12-25T05:00:09.625Z,26.92
2022-12-25T05:02:36.572Z,19.45
2022-12-25T05:05:04.218Z,21.95
2022-12-25T05:07:30.984Z,22.75
2022-12-25T05:09:58.314Z,22.42
2022-12-25T05:12:25.178Z,21.88
2022-12-25T05:14:51.964Z,20.75
2022-12-25T05:17:18.879Z,16.05
2022-12-25T05:19:45.690Z,18.80
2022-12-25T05:22:12.501Z,17.73
2022-12-25T05:24:39.360Z,24.02
2022-12-25T05:27:07.446Z,10.45
2022-12-25T05:29:34.247Z,17.30
2022-12-25T05:32:01.083Z,16.50
2022-12-25T05:34:27.838Z,18.75
2022-12-25T05:36:54.613Z,15.02
2022-12-25T05:39:21.362Z,18.80
2022-12-25T05:41:48.205Z,19.95
2022-12-25T05:44:14.983Z,20.15
2022-12-25T05:46:41.938Z,13.85
2022-12-25T05:49:09.665Z,18.33
2022-12-25T05:51:36.485Z,17.80
2022-12-25T05:54:03.558Z,39.45
2022-12-25T05:56:30.393Z,14.93
2022-12-25T05:58:57.547Z,16.13
2022-12-25T06:01:26.965Z,11.57
2022-12-25T06:03:54.072Z,16.58
2022-12-25T06:06:20.901Z,16.85
2022-12-25T06:08:47.719Z,21.63
2022-12-25T06:11:15.654Z,14.57
2022-12-25T06:13:42.828Z,23.65
2022-12-25T06:16:11.771Z,18.58
2022-12-25T06:18:40.614Z,22.17
2022-12-25T06:21:12.938Z,25.80
2022-12-25T06:23:40.053Z,14.18
2022-12-25T06:26:09.213Z,22.90
2022-12-25T06:28:36.411Z,15.93
2022-12-25T06:31:10.898Z,40.97
2022-12-25T06:33:38.617Z,30.02
2022-12-25T06:36:11.858Z,19.67
2022-12-25T06:38:38.949Z,22.15
2022-12-25T06:41:26.123Z,29.70
2022-12-25T06:43:58.524Z,21.77
2022-12-25T06:46:28.468Z,23.45
2022-12-25T06:48:55.571Z,23.88
2022-12-25T06:51:24.861Z,29.10
2022-12-25T06:53:52.974Z,27.95
2022-12-25T06:56:22.414Z,34.00
2022-12-25T06:58:57.611Z,39.75
2022-12-25T07:01:29.669Z,33.25
2022-12-25T07:04:11.435Z,23.67
2022-12-25T07:06:38.198Z,33.65
2022-12-25T07:09:05.014Z,29.40
2022-12-25T07:11:31.787Z,31.13
2022-12-25T07:13:58.583Z,22.92
2022-12-25T07:16:25.474Z,21.33
2022-12-25T07:18:52.266Z,18.30
2022-12-25T07:21:20.547Z,18.25
2022-12-25T07:23:49.750Z,19.20
2022-12-25T07:26:19.990Z,20.73
2022-12-25T07:28:46.835Z,23.98
2022-12-25T07:31:15.771Z,19.33
2022-12-25T07:33:43.411Z,21.67
2022-12-25T07:36:13.090Z,18.05
2022-12-25T07:38:41.756Z,16.98
2022-12-25T07:41:10.356Z,20.42
2022-12-25T07:43:37.474Z,16.15
2022-12-25T07:46:05.460Z,14.52
2022-12-25T07:48:32.410Z,25.98
2022-12-25T07:51:07.769Z,18.25
2022-12-25T07:53:35.786Z,21.38
2022-12-25T07:56:05.868Z,25.20
2022-12-25T07:58:33.519Z,18.98
2022-12-25T08:01:10.625Z,20.85
2022-12-25T08:03:38.063Z,16.58
2022-12-25T08:06:10.078Z,18.02
2022-12-25T08:08:38.326Z,22.65
2022-12-25T08:11:07.731Z,18.55
2022-12-25T08:13:34.950Z,16.15
2022-12-25T08:16:04.817Z,14.77
2022-12-25T08:18:32.304Z,18.42
2022-12-25T08:21:04.228Z,25.80
2022-12-25T08:23:31.108Z,22.25
2022-12-25T08:26:05.299Z,28.27
2022-12-25T08:28:33.565Z,23.90
2022-12-25T08:31:05.589Z,32.85
2022-12-25T08:33:32.443Z,30.48
2022-12-25T08:36:08.543Z,42.13
2022-12-25T08:38:35.756Z,24.42
2022-12-25T08:41:03.152Z,19.92
2022-12-25T08:43:29.980Z,30.10
2022-12-25T08:45:56.894Z,24.17
2022-12-25T08:48:23.801Z,22.45
2022-12-25T08:50:52.192Z,22.52
2022-12-25T08:53:19.863Z,22.33
2022-12-25T08:55:46.917Z,17.38
2022-12-25T08:58:17.012Z,26.10
2022-12-25T09:00:43.912Z,22.65
2022-12-25T09:03:10.785Z,23.90
2022-12-25T09:05:38.317Z,23.25
2022-12-25T09:08:05.366Z,20.83
2022-12-25T09:10:35.013Z,21.60
2022-12-25T09:13:01.848Z,19.63
2022-12-25T09:15:28.643Z,18.35
2022-12-25T09:17:55.443Z,17.40
2022-12-25T09:20:22.344Z,17.45
2022-12-25T09:22:49.187Z,12.10
2022-12-25T09:25:15.994Z,15.38
2022-12-25T09:27:43.731Z,18.33
2022-12-25T09:30:11.317Z,21.23
2022-12-25T09:32:40.303Z,17.70
2022-12-25T09:35:10.063Z,17.90
2022-12-25T09:37:36.867Z,22.58
2022-12-25T09:40:04.213Z,13.32
2022-12-25T09:42:31.942Z,17.17
2022-12-25T09:45:10.903Z,16.33
2022-12-25T09:47:41.898Z,17.38
2022-12-25T09:50:16.507Z,19.30
2022-12-25T09:52:50.599Z,15.75
2022-12-25T10:08:00.573Z,16.30
2022-12-25T10:10:51.596Z,11.90
2022-12-25T10:13:21.388Z,21.40
2022-12-25T10:15:51.344Z,19.80
2022-12-25T10:18:27.349Z,15.10
2022-12-25T10:21:00.379Z,16.02
2022-12-25T10:23:41.045Z,22.00
2022-12-25T10:26:20.253Z,17.50
2022-12-25T10:28:58.452Z,19.30
2022-12-25T10:31:28.526Z,29.63
2022-12-25T10:33:55.815Z,22.00
2022-12-25T10:36:28.139Z,22.17
2022-12-25T10:38:55.690Z,17.67
2022-12-25T10:41:49.146Z,22.27
2022-12-25T10:44:21.857Z,16.27
2022-12-25T10:46:51.461Z,14.20
2022-12-25T10:49:21.865Z,22.80
2022-12-25T10:51:49.126Z,22.08
2022-12-25T10:54:26.878Z,14.25
2022-12-25T10:56:59.599Z,13.95
2022-12-25T10:59:34.489Z,20.73
2022-12-25T11:02:26.991Z,29.55
2022-12-25T11:05:05.008Z,23.45
2022-12-25T11:07:33.179Z,19.38
2022-12-25T11:10:16.166Z,18.00
2022-12-25T11:12:44.367Z,21.65
2022-12-25T11:15:29.910Z,18.83
2022-12-25T11:17:56.679Z,19.70
2022-12-25T11:20:24.270Z,18.15
2022-12-25T11:22:51.327Z,15.32
2022-12-25T11:25:27.567Z,19.27
2022-12-25T11:28:00.124Z,15.20
2022-12-25T11:32:58.105Z,21.52
2022-12-25T11:35:31.001Z,14.15
2022-12-25T11:37:57.950Z,17.80
2022-12-25T11:40:43.729Z,15.18
2022-12-25T11:43:38.030Z,19.00
2022-12-25T11:46:17.078Z,18.38
2022-12-25T11:48:57.106Z,18.60
2022-12-25T11:51:28.875Z,18.73
2022-12-25T11:54:07.056Z,19.17
2022-12-25T11:56:34.016Z,15.05
2022-12-25T11:59:17.780Z,18.38
2022-12-25T12:02:23.705Z,16.48
2022-12-25T12:05:14.681Z,22.17
2022-12-25T12:07:56.124Z,17.48
2022-12-25T12:10:43.772Z,17.15
2022-12-25T12:13:52.710Z,19.88
2022-12-25T12:16:19.675Z,16.60
2022-12-25T12:18:50.584Z,14.90
2022-12-25T12:21:29.930Z,19.10
2022-12-25T12:24:15.290Z,20.23
2022-12-25T12:26:44.933Z,20.35
2022-12-25T12:29:30.092Z,16.27
2022-12-25T12:32:01.323Z,16.30
2022-12-25T12:34:42.490Z,19.70
2022-12-25T12:37:24.796Z,15.35
2022-12-25T12:42:26.145Z,22.48
2022-12-25T12:44:55.695Z,24.25
2022-12-25T12:47:34.177Z,16.35
2022-12-25T12:50:01.955Z,18.70
2022-12-25T12:52:36.410Z,14.55
2022-12-25T12:55:07.433Z,19.20
2022-12-25T12:57:40.130Z,22.65
2022-12-25T13:00:16.950Z,17.33
2022-12-25T13:03:02.693Z,18.23
2022-12-25T13:05:41.690Z,19.95
2022-12-25T13:08:49.991Z,27.70
2022-12-25T13:11:23.787Z,21.35
2022-12-25T13:13:53.082Z,38.63
2022-12-25T13:16:26.490Z,29.75
2022-12-25T13:18:56.047Z,15.45
2022-12-25T13:21:25.918Z,14.88
2022-12-25T13:24:00.866Z,16.42
2022-12-25T13:26:28.247Z,14.73
2022-12-25T13:28:56.233Z,15.90
2022-12-25T13:31:30.947Z,12.07
2022-12-25T13:34:06.624Z,12.38
2022-12-25T13:36:38.572Z,13.65
2022-12-25T13:39:08.755Z,15.20
2022-12-25T13:42:02.723Z,13.55
2022-12-25T13:44:40.770Z,11.85
2022-12-25T13:47:16.866Z,15.80
2022-12-25T13:49:45.337Z,16.30
2022-12-25T13:52:15.016Z,15.05
2022-12-25T13:54:57.606Z,12.48
2022-12-25T13:57:28.336Z,15.02
2022-12-25T13:59:55.873Z,13.80
2022-12-25T14:02:28.632Z,22.42
2022-12-25T14:04:55.935Z,16.67
2022-12-25T14:07:24.551Z,15.82
2022-12-25T14:09:56.543Z,17.83
2022-12-25T14:12:24.622Z,15.65
2022-12-25T14:14:53.095Z,13.07
2022-12-25T14:17:20.158Z,15.40
2022-12-25T14:19:55.371Z,14.63
2022-12-25T14:22:23.113Z,21.90
2022-12-25T14:24:50.179Z,16.65
2022-12-25T14:27:24.119Z,20.13
2022-12-25T14:29:54.509Z,13.95
2022-12-25T14:32:28.224Z,19.05
2022-12-25T14:35:00.027Z,17.13
2022-12-25T14:37:30.555Z,19.83
2022-12-25T14:40:03.229Z,17.15
2022-12-25T14:45:26.801Z,17.02
2022-12-25T14:47:59.161Z,13.20
2022-12-25T14:50:37.404Z,16.27
2022-12-25T14:53:16.796Z,15.40
2022-12-25T14:55:56.383Z,13.23
2022-12-25T14:58:28.147Z,18.45
2022-12-25T15:01:03.486Z,15.63
2022-12-25T15:03:37.072Z,19.02
2022-12-25T15:06:06.699Z,15.05
2022-12-25T15:08:34.788Z,13.50
2022-12-25T15:11:03.262Z,17.33
2022-12-25T15:13:31.684Z,14.20
2022-12-25T15:16:08.276Z,20.60
2022-12-25T15:18:39.653Z,16.17
2022-12-25T15:21:07.239Z,18.20
2022-12-25T15:23:34.125Z,14.55
2022-12-25T15:26:00.875Z,17.98
2022-12-25T15:28:27.639Z,15.10
2022-12-25T15:30:54.530Z,12.77
2022-12-25T15:33:21.410Z,18.90
2022-12-25T15:35:48.921Z,14.27
2022-12-25T15:38:15.891Z,20.23
2022-12-25T15:40:42.904Z,18.48
2022-12-25T15:43:39.306Z,19.95
2022-12-25T15:46:01.094Z,20.27
2022-12-25T15:48:27.886Z,22.00
2022-12-25T15:50:54.612Z,19.83
2022-12-25T15:53:21.527Z,18.58
2022-12-25T15:55:49.260Z,16.95
2022-12-25T15:58:16.023Z,16.10
2022-12-25T16:00:42.784Z,15.27
2022-12-25T16:03:09.748Z,21.10
2022-12-25T16:05:36.784Z,20.02
2022-12-25T16:08:03.660Z,23.95
2022-12-25T16:10:36.590Z,17.80
2022-12-25T16:13:05.491Z,17.98
2022-12-25T16:15:32.454Z,16.38
2022-12-25T16:17:59.458Z,18.15
2022-12-25T16:20:26.270Z,15.65
2022-12-25T16:22:53.080Z,23.15
2022-12-25T16:25:20.140Z,15.32
2022-12-25T16:27:47.014Z,16.90
2022-12-25T16:30:16.736Z,19.10
2022-12-25T16:32:45.362Z,15.88
2022-12-25T16:35:12.449Z,13.80
2022-12-25T16:37:39.641Z,14.18
2022-12-25T16:40:09.609Z,20.38
2022-12-25T16:42:37.840Z,15.63
2022-12-25T16:45:05.111Z,12.20
2022-12-25T16:47:31.900Z,15.82
2022-12-25T16:49:58.664Z,16.27
2022-12-25T16:52:25.479Z,11.98
2022-12-25T16:54:52.325Z,10.13
2022-12-25T16:57:19.126Z,11.77
2022-12-25T16:59:45.937Z,12.15
2022-12-25T17:02:17.070Z,13.50
2022-12-25T17:04:44.929Z,11.15
2022-12-25T17:07:12.712Z,12.07
2022-12-25T17:09:44.160Z,13.30
2022-12-25T17:12:11.449Z,10.25
2022-12-25T17:14:38.278Z,8.70
2022-12-25T17:17:05.176Z,14.07
2022-12-25T17:19:32.381Z,9.77
2022-12-25T17:21:59.886Z,8.93
2022-12-25T17:24:27.558Z,13.90
2022-12-25T17:26:54.578Z,11.40
2022-12-25T17:29:22.594Z,14.85
2022-12-25T17:31:50.022Z,7.38
2022-12-25T17:34:16.949Z,12.20
2022-12-25T17:36:43.896Z,11.60
2022-12-25T17:39:11.703Z,8.05
2022-12-25T17:41:38.519Z,11.00
2022-12-25T17:44:05.402Z,12.82
2022-12-25T17:46:32.282Z,9.18
2022-12-25T17:49:01.093Z,9.65
2022-12-25T17:51:30.469Z,9.75
2022-12-25T17:53:59.790Z,9.35
2022-12-25T17:56:27.041Z,8.50
2022-12-25T17:58:56.467Z,11.05
2022-12-25T18:01:24.866Z,10.00
2022-12-25T18:03:52.274Z,10.93
2022-12-25T18:06:21.592Z,11.77
2022-12-25T18:08:49.506Z,11.27
2022-12-25T18:11:19.824Z,14.77
2022-12-25T18:13:49.926Z,14.20
2022-12-25T18:16:18.172Z,12.40
2022-12-25T18:18:51.544Z,11.48
2022-12-25T18:21:20.780Z,19.35
2022-12-25T18:23:47.725Z,17.15
2022-12-25T18:26:14.994Z,18.45
2022-12-25T18:28:42.693Z,13.32
2022-12-25T18:31:22.306Z,12.82
2022-12-25T18:33:50.222Z,12.55
2022-12-25T18:36:20.254Z,13.90
2022-12-25T18:38:48.603Z,12.70
2022-12-25T18:41:15.637Z,11.93
2022-12-25T18:43:52.533Z,14.35
2022-12-25T18:46:24.291Z,12.73
2022-12-25T18:48:52.026Z,19.25
2022-12-25T18:51:19.009Z,13.63
2022-12-25T18:53:46.186Z,12.48
2022-12-25T18:56:18.442Z,12.07
2022-12-25T18:58:46.587Z,10.13
2022-12-25T19:01:17.161Z,10.50
2022-12-25T19:03:45.370Z,15.23
2022-12-25T19:06:26.637Z,14.35
2022-12-25T19:08:54.434Z,11.07
2022-12-25T19:11:21.943Z,13.50
2022-12-25T19:13:48.804Z,15.00
2022-12-25T19:16:15.934Z,12.35
2022-12-25T19:18:43.374Z,13.93
2022-12-25T19:21:11.493Z,10.63
2022-12-25T19:23:38.851Z,17.23
2022-12-25T19:26:07.998Z,21.70
2022-12-25T19:28:35.706Z,21.45
2022-12-25T19:31:03.022Z,17.42
2022-12-25T19:33:31.877Z,22.27
2022-12-25T19:36:04.118Z,18.58
2022-12-25T19:38:31.185Z,18.25
2022-12-25T19:41:01.370Z,20.52
2022-12-25T19:43:30.219Z,23.17
2022-12-25T19:45:57.463Z,19.05
2022-12-25T19:48:24.735Z,29.70
2022-12-25T19:50:52.192Z,14.75
2022-12-25T19:53:21.437Z,16.55
2022-12-25T19:55:48.196Z,19.30
2022-12-25T19:58:15.007Z,13.20
2022-12-25T20:00:41.859Z,13.05
2022-12-25T20:03:09.599Z,11.07
2022-12-25T20:05:38.522Z,16.35
2022-12-25T20:08:05.422Z,18.35
2022-12-25T20:10:32.167Z,17.23
2022-12-25T20:12:58.900Z,13.85
2022-12-25T20:15:25.726Z,11.45
2022-12-25T20:17:54.402Z,20.20
2022-12-25T20:20:21.143Z,21.10
2022-12-25T20:22:47.891Z,13.40
2022-12-25T20:25:14.773Z,22.13
2022-12-25T20:27:41.608Z,17.00
2022-12-25T20:30:08.710Z,30.92
2022-12-25T20:32:35.460Z,24.55
2022-12-25T20:35:02.182Z,30.83
2022-12-25T20:37:28.892Z,17.63
2022-12-25T20:39:55.732Z,13.18
2022-12-25T20:42:22.475Z,15.15
2022-12-25T20:44:49.223Z,13.02
2022-12-25T20:47:16.016Z,24.35
2022-12-25T20:49:42.811Z,15.30
2022-12-25T20:52:12.982Z,17.02
2022-12-25T20:54:39.710Z,14.05
2022-12-25T20:57:06.398Z,10.40
2022-12-25T20:59:37.747Z,13.23
2022-12-25T21:02:04.875Z,13.67
2022-12-25T21:04:31.785Z,13.13
2022-12-25T21:06:58.519Z,12.82
2022-12-25T21:09:25.299Z,17.10
2022-12-25T21:11:52.139Z,15.45
2022-12-25T21:14:18.906Z,14.77
2022-12-25T21:16:45.737Z,17.52
2022-12-25T21:19:16.632Z,12.02
2022-12-25T21:21:43.636Z,18.55
2022-12-25T21:24:10.721Z,20.70
2022-12-25T21:26:39.155Z,18.27
2022-12-25T21:29:09.374Z,12.30
2022-12-25T21:31:56.170Z,19.05
2022-12-25T21:34:22.998Z,13.27
2022-12-25T21:36:49.989Z,16.95
2022-12-25T21:39:18.782Z,27.73
2022-12-25T21:41:45.510Z,10.73
2022-12-25T21:44:12.249Z,21.02
2022-12-25T21:46:39.048Z,16.00
2022-12-25T21:49:05.988Z,15.35
2022-12-25T21:51:52.867Z,18.00
2022-12-25T21:54:21.516Z,14.75
2022-12-25T21:56:49.567Z,14.55
2022-12-25T21:59:21.739Z,16.02
2022-12-25T22:01:50.551Z,16.33
2022-12-25T22:04:19.058Z,13.35
2022-12-25T22:07:05.379Z,14.07
2022-12-25T22:09:32.464Z,13.63
2022-12-25T22:12:18.581Z,15.85
2022-12-25T22:14:57.003Z,14.32
2022-12-25T22:17:51.505Z,12.68
2022-12-25T22:20:30.947Z,16.30
2022-12-25T22:23:00.499Z,13.57
2022-12-25T22:25:27.365Z,13.98
2022-12-25T22:27:54.374Z,16.23
2022-12-25T22:30:25.696Z,19.60
2022-12-25T22:32:52.893Z,12.43
2022-12-25T22:35:20.686Z,15.48
2022-12-25T22:37:48.290Z,11.40
2022-12-25T22:40:17.422Z,13.15
2022-12-25T22:42:44.249Z,11.75
2022-12-25T22:45:11.690Z,12.07
2022-12-25T22:47:38.574Z,14.98
2022-12-25T22:50:06.013Z,20.05
2022-12-25T22:52:32.823Z,15.13
2022-12-25T22:54:59.577Z,12.60
2022-12-25T22:57:26.590Z,14.05
2022-12-25T22:59:53.666Z,20.15
2022-12-25T23:02:21.080Z,11.63
2022-12-25T23:04:48.081Z,9.00
2022-12-25T23:07:15.702Z,10.68
2022-12-25T23:09:43.879Z,9.02
2022-12-25T23:12:30.130Z,8.18
2022-12-25T23:14:57.367Z,7.95
2022-12-25T23:17:42.845Z,7.47
2022-12-25T23:20:28.880Z,11.40
2022-12-25T23:23:14.518Z,9.07
2022-12-25T23:26:00.077Z,5.18
2022-12-25T23:28:45.741Z,5.18
2022-12-25T23:31:12.734Z,5.22
2022-12-25T23:33:39.499Z,4.57
2022-12-25T23:36:06.569Z,5.25
2022-12-25T23:38:33.291Z,4.28
2022-12-25T23:41:00.155Z,3.97
2022-12-25T23:43:26.922Z,3.90
2022-12-25T23:45:53.642Z,4.45
2022-12-25T23:48:21.329Z,4.00
2022-12-25T23:50:48.353Z,3.35
2022-12-25T23:53:15.045Z,4.00
2022-12-25T23:55:42.729Z,3.80
2022-12-25T23:58:09.566Z,3.90
